Aviation Digital Data Service (ADDS)

Output produced by METARs form (0238 UTC 01 February 2023)
found at http://www.aviationweather.gov/metar/data/
 
LHBP 010230Z 26010KT 9999 SCT030 03/M01 Q1015 NOSIG
LHBP 010200Z 25009KT 9999 FEW033 BKN039 03/M00 Q1016 NOSIG
LHBP 010130Z 25010KT 9999 BKN033 04/M00 Q1016 NOSIG
LHBP 010100Z 25011KT 9999 BKN033 03/00 Q1016 NOSIG
LHBP 010030Z 25012KT 9999 BKN032 03/00 Q1016 NOSIG
LHBP 010000Z 24008KT 9999 SCT012 BKN035 03/01 Q1016 NOSIG
TAF LHBP 312315Z 0100/0124 28015G25KT 9999 SCT030 
     TEMPO 0100/0103 25008KT -RASN BKN012 OVC030 
     TEMPO 0103/0114 31020G32KT 
     TEMPO 0110/0116 2500 SHRASN BKN015TCU BKN050 
     PROB30 
     TEMPO 0112/0116 1200 TSSNGS BKN010CB OVC030 
     TEMPO 0114/0122 25008KT 
     TEMPO 0120/0124 5000 SHRASN SCT020TCU BKN050
       
LHDC 010215Z AUTO 24011KT CAVOK 02/00 Q1014 NOSIG
LHDC 010145Z AUTO 25012KT 9999 FEW042 SCT068 02/00 Q1014 NOSIG
LHDC 010115Z AUTO 24009KT 9999 FEW045 BKN083 02/00 Q1015 NOSIG
LHDC 010045Z AUTO 23008KT 200V260 CAVOK 02/M00 Q1015 NOSIG
LHDC 010015Z AUTO 24007KT CAVOK 02/M00 Q1015 NOSIG
LHDC 312345Z AUTO 23008KT CAVOK 02/M00 Q1015 NOSIG
TAF LHDC 010215Z 0103/0112 24012KT CAVOK 
     TEMPO 0103/0112 28018G28KT 
     TEMPO 0103/0106 BKN010 
     BECMG 0108/0111 SCT030 BKN120
       
LHKE 010215Z 26010KT 9999 OVC040 04/M01 Q1016 NOSIG RMK BLU
LHKE 010145Z 26010KT 9999 OVC040 04/M01 Q1017 NOSIG RMK BLU
LHKE 010115Z 26008KT 9999 OVC040 04/M01 Q1017 NOSIG RMK BLU
LHKE 010045Z 24006KT 9999 OVC038 03/M00 Q1017 NOSIG RMK BLU
LHKE 010015Z 27010KT 9999 OVC038 04/M00 Q1018 BECMG CAVOK RMK BLU
LHKE 312345Z 28010KT 9999 OVC038 03/00 Q1017 BECMG CAVOK RMK BLU
TAF LHKE 312315Z 0100/0109 28014KT CAVOK 
     PROB30 
     TEMPO 0100/0103 8000 -RA -RASN BKN020 OVC050
       
LHPA 010215Z 22004KT CAVOK 01/M03 Q1017 NOSIG RMK BLU
LHPA 010145Z 22006KT 9999 FEW047 SCT083 01/M02 Q1017 NOSIG RMK BLU
LHPA 010115Z 23006KT 9999 FEW047 BKN083 02/M02 Q1018 NOSIG RMK BLU
LHPA 010045Z 25006KT 220V280 9999 SCT047 BKN083 03/M02 Q1018 NOSIG RMK BLU
LHPA 010015Z 24006KT 9999 SCT047 BKN083 03/M02 Q1018 NOSIG RMK BLU
LHPA 312345Z 23006KT 9999 SCT047 OVC083 04/M02 Q1018 NOSIG RMK BLU
TAF LHPA 312315Z 0100/0124 23008KT CAVOK 
     PROB30 
     TEMPO 0109/0114 30015G26KT 8000 SHRA SHRASN SCT030TCU BKN083
       
LHPP 010215Z AUTO 29008KT CAVOK 03/M03 Q1019
LHPP 010145Z AUTO 28008KT CAVOK 03/M03 Q1019
LHPP 010115Z AUTO 28005KT CAVOK 02/M03 Q1019
LHPP 010045Z AUTO 27003KT 230V290 CAVOK 02/M03 Q1019
LHPP 010015Z AUTO 23003KT CAVOK 02/M03 Q1019
LHPP 312345Z AUTO 00000KT CAVOK 03/M03 Q1019
LHPR 010215Z AUTO 26006KT CAVOK 04/M02 Q1017
LHPR 010145Z AUTO 27009KT CAVOK 03/M02 Q1017
LHPR 010115Z AUTO 28011KT CAVOK 04/M02 Q1017
LHPR 010045Z AUTO 28013KT CAVOK 04/M01 Q1017
LHPR 010015Z AUTO 28011KT 250V310 CAVOK 04/M02 Q1017
LHPR 312345Z AUTO 25007KT 9999 BKN044 OVC088 04/M02 Q1018
TAF LHPR 010215Z 0103/0112 25012KT CAVOK 
     TEMPO 0103/0112 31020G30KT 
     BECMG 0107/0109 SCT030 BKN100 
     TEMPO 0109/0112 2500 SHRASN SCT020TCU BKN050
       
LHSM 010215Z AUTO 18002KT CAVOK M01/M02 Q1018
LHSM 010145Z AUTO 19004KT CAVOK M01/M03 Q1018
LHSM 010115Z AUTO 00000KT CAVOK M01/M02 Q1019
LHSM 010045Z AUTO 00000KT CAVOK M01/M03 Q1019
LHSM 010015Z AUTO 00000KT CAVOK M00/M02 Q1019
LHSM 312345Z AUTO VRB01KT CAVOK 00/M02 Q1019
LHSN 010215Z 26012KT 9999 BKN035 04/M00 Q1015 NOSIG RMK BLU
LHSN 010145Z 26014KT 230V290 9999 BKN035 04/M00 Q1015 NOSIG RMK BLU
LHSN 010115Z 26010KT 220V280 9999 BKN035 04/M00 Q1016 NOSIG RMK BLU
LHSN 010045Z 26008KT 230V290 9999 BKN035 04/00 Q1016 NOSIG RMK BLU
LHSN 010015Z 26010KT 230V290 9999 BKN035 03/00 Q1016 NOSIG RMK BLU
LHSN 312345Z 26008KT 220V310 9999 BKN040 03/01 Q1016 NOSIG RMK BLU
TAF LHSN 312315Z 0100/0109 27010KT 9999 BKN040 OVC070 
     PROB30 
     TEMPO 0100/0102 28012G22KT 8000 -RA SCT010 BKN030 OVC050 
     BECMG 0102/0105 CAVOK 
     BECMG 0107/0109 29014G24KT